createdAt,value
2023-04-21T00:00:30.924Z,56.1
2023-04-21T00:06:25.036Z,56.1
2023-04-21T00:12:16.700Z,56.1
2023-04-21T00:18:07.976Z,56
2023-04-21T00:23:59.568Z,55.9
2023-04-21T00:29:51.026Z,55.9
2023-04-21T00:35:27.035Z,55.9
2023-04-21T00:41:19.497Z,55.8
2023-04-21T00:46:55.724Z,55.8
2023-04-21T00:52:32.153Z,55.8
2023-04-21T00:58:08.833Z,55.7
2023-04-21T01:03:47.088Z,55.6
2023-04-21T01:09:39.231Z,55.6
2023-04-21T01:15:15.124Z,55.6
2023-04-21T01:21:07.048Z,55.5
2023-04-21T01:26:58.308Z,55.4
2023-04-21T01:32:50.100Z,55.4
2023-04-21T01:38:41.554Z,55.4
2023-04-21T01:44:02.216Z,55.3
2023-04-21T01:49:23.593Z,55.3
2023-04-21T01:55:15.516Z,55.3
2023-04-21T02:00:35.829Z,55.2
2023-04-21T02:06:29.589Z,55.2
2023-04-21T02:12:21.026Z,55.1
2023-04-21T02:18:29.667Z,55.1
2023-04-21T02:24:21.390Z,55
2023-04-21T02:29:57.662Z,55
2023-04-21T02:35:55.700Z,54.9
2023-04-21T02:41:47.283Z,54.9
2023-04-21T02:47:38.987Z,54.8
2023-04-21T02:53:31.513Z,54.8
2023-04-21T02:59:23.125Z,54.8
2023-04-21T03:05:16.243Z,54.7
2023-04-21T03:11:07.419Z,54.6
2023-04-21T03:16:59.575Z,54.6
2023-04-21T03:22:52.176Z,54.6
2023-04-21T03:28:43.989Z,54.5
2023-04-21T03:34:21.486Z,54.5
2023-04-21T03:40:25.201Z,54.4
2023-04-21T03:46:17.138Z,54.4
2023-04-21T03:52:11.008Z,54.4
2023-04-21T03:58:02.492Z,54.3
2023-04-21T04:03:56.769Z,54.3
2023-04-21T04:09:48.905Z,54.2
2023-04-21T04:15:09.709Z,54.2
2023-04-21T04:21:01.884Z,54.1
2023-04-21T04:26:53.214Z,54.1
2023-04-21T04:32:29.655Z,54
2023-04-21T04:38:24.096Z,54
2023-04-21T04:44:17.391Z,53.9
2023-04-21T04:50:12.269Z,53.9
2023-04-21T04:56:02.803Z,53.9
2023-04-21T05:01:53.837Z,53.8
2023-04-21T05:07:32.829Z,53.8
2023-04-21T05:13:23.699Z,53.7
2023-04-21T05:19:18.622Z,53.6
2023-04-21T05:25:10.463Z,53.6
2023-04-21T05:31:05.063Z,53.6
2023-04-21T05:37:00.139Z,53.5
2023-04-21T05:42:52.426Z,53.4
2023-04-21T05:48:30.292Z,53.4
2023-04-21T05:53:35.751Z,53.4
2023-04-21T05:59:27.542Z,53.3
2023-04-21T06:05:07.124Z,53.3
2023-04-21T06:10:43.663Z,53.2
2023-04-21T06:16:35.467Z,53.1
2023-04-21T06:22:26.873Z,53.1
2023-04-21T06:28:03.269Z,53.1
2023-04-21T06:33:27.764Z,53
2023-04-21T06:39:19.273Z,53
2023-04-21T06:45:11.554Z,52.9
2023-04-21T06:50:47.600Z,52.9
2023-04-21T06:56:23.489Z,52.9
2023-04-21T07:02:18.377Z,52.8
2023-04-21T07:08:11.743Z,52.8
2023-04-21T07:14:03.052Z,52.7
2023-04-21T07:19:55.166Z,52.7
2023-04-21T07:25:47.333Z,52.6
2023-04-21T07:31:22.768Z,52.6
2023-04-21T07:37:13.957Z,52.6
2023-04-21T07:43:06.325Z,52.5
2023-04-21T07:48:57.116Z,52.4
2023-04-21T07:54:48.779Z,52.4
2023-04-21T08:06:24.153Z,52.3
2023-04-21T08:12:17.570Z,52.3
2023-04-21T08:17:54.111Z,52.3
2023-04-21T08:23:34.376Z,52.2
2023-04-21T08:29:10.740Z,52.1
2023-04-21T08:35:17.459Z,52.1
2023-04-21T08:41:34.010Z,52.1
2023-04-21T08:47:29.188Z,52
2023-04-21T08:53:23.437Z,52
2023-04-21T09:05:13.105Z,51.9
2023-04-21T09:10:51.967Z,52.3
2023-04-21T09:16:45.034Z,53
2023-04-21T09:22:21.898Z,53.8
2023-04-21T09:28:15.892Z,54.3
2023-04-21T09:34:28.609Z,54.7
2023-04-21T09:41:02.422Z,54.8
2023-04-21T09:47:19.837Z,55.1
2023-04-21T09:53:56.689Z,55.2
2023-04-21T09:59:47.716Z,55.2
2023-04-21T10:05:43.404Z,55.2
2023-04-21T10:11:34.888Z,55.1
2023-04-21T10:17:28.959Z,55.1
2023-04-21T10:23:21.159Z,55.1
2023-04-21T10:29:13.140Z,55.1
2023-04-21T10:35:17.296Z,55.1
2023-04-21T10:41:14.154Z,55.1
2023-04-21T10:47:05.361Z,55.6
2023-04-21T10:52:57.330Z,56.2
2023-04-21T10:58:49.062Z,56.4
2023-04-21T11:04:46.046Z,56.4
2023-04-21T11:10:39.217Z,56.4
2023-04-21T11:16:30.583Z,56.4
2023-04-21T11:22:22.318Z,56.4
2023-04-21T11:28:13.665Z,56.8
2023-04-21T11:33:49.945Z,57.6
2023-04-21T11:39:41.942Z,58.3
2023-04-21T11:45:34.095Z,59.1
2023-04-21T11:51:26.380Z,59.7
2023-04-21T11:57:02.924Z,60.3
2023-04-21T12:02:54.913Z,61
2023-04-21T12:08:34.256Z,61.6
2023-04-21T12:14:25.327Z,62.3
2023-04-21T12:20:18.799Z,62.9
2023-04-21T12:26:11.143Z,63.4
2023-04-21T12:32:05.794Z,63.8
2023-04-21T12:37:59.507Z,64
2023-04-21T12:43:50.969Z,63.9
2023-04-21T12:49:45.086Z,63.9
2023-04-21T12:55:21.604Z,63.9
2023-04-21T13:01:25.448Z,63.9
2023-04-21T13:07:19.242Z,63.8
2023-04-21T13:12:56.300Z,63.8
2023-04-21T13:18:48.031Z,63.8
2023-04-21T13:24:41.566Z,63.8
2023-04-21T13:30:32.868Z,63.7
2023-04-21T13:36:29.417Z,63.6
2023-04-21T13:42:09.178Z,63.6
2023-04-21T13:48:01.016Z,63.5
2023-04-21T13:53:54.566Z,63.5
2023-04-21T13:59:31.570Z,63.4
2023-04-21T14:05:11.691Z,63.4
2023-04-21T14:10:51.384Z,63.4
2023-04-21T14:17:29.655Z,63.3
2023-04-21T14:23:21.087Z,63.3
2023-04-21T14:29:12.865Z,63.2
2023-04-21T14:34:50.472Z,63.1
2023-04-21T14:40:29.377Z,63.1
2023-04-21T14:46:07.783Z,63.1
2023-04-21T14:51:56.743Z,63
2023-04-21T14:58:04.164Z,62.9
2023-04-21T15:03:43.893Z,62.9
2023-04-21T15:09:25.441Z,62.9
2023-04-21T15:15:01.787Z,62.8
2023-04-21T15:20:48.990Z,62.8
2023-04-21T15:26:40.191Z,62.7
2023-04-21T15:32:16.351Z,62.7
2023-04-21T15:37:52.652Z,62.6
2023-04-21T15:43:42.063Z,62.6
2023-04-21T15:49:19.295Z,62.5
2023-04-21T15:55:11.919Z,62.4
2023-04-21T16:01:05.251Z,62.4
2023-04-21T16:06:45.797Z,62.4
2023-04-21T16:12:37.855Z,62.3
2023-04-21T16:19:06.110Z,62.3
2023-04-21T16:24:58.896Z,62.2
2023-04-21T16:30:51.574Z,62.1
2023-04-21T16:36:46.490Z,62.1
2023-04-21T16:42:38.398Z,62.1
2023-04-21T16:48:32.173Z,62
2023-04-21T16:54:23.773Z,61.9
2023-04-21T17:00:14.404Z,61.9
2023-04-21T17:06:08.874Z,61.8
2023-04-21T17:12:00.067Z,61.8
2023-04-21T17:17:53.767Z,61.8
2023-04-21T17:23:45.120Z,61.7
2023-04-21T17:29:54.128Z,61.6
2023-04-21T17:36:28.721Z,61.6
2023-04-21T17:42:20.592Z,61.5
2023-04-21T17:48:12.374Z,61.4
2023-04-21T17:53:48.501Z,61.4
2023-04-21T17:59:40.919Z,61.4
2023-04-21T18:05:19.775Z,61.3
2023-04-21T18:10:55.369Z,61.3
2023-04-21T18:16:32.779Z,61.2
2023-04-21T18:22:09.605Z,61.2
2023-04-21T18:28:00.399Z,61.1
2023-04-21T18:33:21.839Z,61.1
2023-04-21T18:38:56.714Z,61
2023-04-21T18:44:02.641Z,60.9
2023-04-21T18:49:40.230Z,60.9
2023-04-21T18:55:16.240Z,60.9
2023-04-21T19:00:52.217Z,60.8
2023-04-21T19:06:30.833Z,60.8
2023-04-21T19:12:38.087Z,60.7
2023-04-21T19:18:43.178Z,60.6
2023-04-21T19:24:34.631Z,60.6
2023-04-21T19:30:26.093Z,60.6
2023-04-21T19:36:19.186Z,60.5
2023-04-21T19:42:10.519Z,60.4
2023-04-21T19:48:02.847Z,60.4
2023-04-21T19:54:03.523Z,60.3
2023-04-21T20:00:18.806Z,60.2
2023-04-21T20:06:13.452Z,60.1
2023-04-21T20:12:04.169Z,60.1
2023-04-21T20:17:56.555Z,60.1
2023-04-21T20:23:48.076Z,60
2023-04-21T20:29:26.152Z,59.9
2023-04-21T20:35:18.074Z,59.9
2023-04-21T20:40:54.134Z,59.8
2023-04-21T20:46:43.824Z,59.8
2023-04-21T20:52:36.097Z,59.8
2023-04-21T20:58:26.799Z,59.7
2023-04-21T21:04:22.510Z,59.6
2023-04-21T21:10:16.851Z,59.6
2023-04-21T21:16:08.957Z,59.6
2023-04-21T21:21:45.111Z,59.5
2023-04-21T21:27:36.330Z,59.4
2023-04-21T21:33:28.149Z,59.4
2023-04-21T21:39:19.814Z,59.3
2023-04-21T21:45:11.764Z,59.3
2023-04-21T21:51:08.157Z,59.2
2023-04-21T21:56:44.477Z,59.2
2023-04-21T22:02:39.951Z,59.1
2023-04-21T22:08:34.750Z,59.1
2023-04-21T22:14:38.676Z,59
2023-04-21T22:20:30.502Z,58.9
2023-04-21T22:26:21.606Z,58.9
2023-04-21T22:31:58.101Z,58.8
2023-04-21T22:37:49.589Z,58.8
2023-04-21T22:43:40.281Z,58.8
2023-04-21T22:49:32.536Z,58.7
2023-04-21T22:55:24.456Z,58.6
2023-04-21T23:01:16.966Z,58.6
2023-04-21T23:12:46.685Z,58.5
2023-04-21T23:18:39.180Z,58.4
2023-04-21T23:24:30.665Z,58.4
2023-04-21T23:30:22.730Z,58.3
2023-04-21T23:36:14.390Z,58.3
2023-04-21T23:42:06.160Z,58.3
2023-04-21T23:47:58.577Z,58.2
2023-04-21T23:53:35.800Z,58.1
2023-04-21T23:59:28.194Z,58.1
